createdAt,value
2019-02-07T00:00:45.670Z,37.85
2019-02-07T00:03:14.781Z,43.05
2019-02-07T00:05:43.943Z,45.20
2019-02-07T00:08:13.042Z,46.30
2019-02-07T00:10:42.515Z,37.28
2019-02-07T00:13:11.709Z,40.75
2019-02-07T00:15:40.862Z,36.50
2019-02-07T00:18:10.213Z,38.70
2019-02-07T00:20:39.596Z,35.15
2019-02-07T00:23:08.713Z,34.90
2019-02-07T00:25:38.078Z,41.00
2019-02-07T00:28:07.252Z,38.85
2019-02-07T00:30:36.544Z,40.98
2019-02-07T00:33:05.743Z,35.48
2019-02-07T00:35:34.834Z,39.20
2019-02-07T00:38:03.954Z,42.15
2019-02-07T00:40:33.052Z,38.45
2019-02-07T00:43:02.230Z,40.45
2019-02-07T00:45:31.358Z,42.08
2019-02-07T00:48:00.469Z,41.85
2019-02-07T00:50:31.091Z,43.13
2019-02-07T00:53:00.522Z,39.05
2019-02-07T00:55:29.711Z,37.30
2019-02-07T00:57:58.806Z,44.35
2019-02-07T01:00:27.921Z,40.50
2019-02-07T01:02:57.020Z,40.28
2019-02-07T01:05:26.123Z,39.53
2019-02-07T01:07:55.342Z,41.90
2019-02-07T01:10:25.353Z,40.83
2019-02-07T01:12:54.458Z,41.60
2019-02-07T01:15:24.449Z,44.90
2019-02-07T01:17:53.643Z,39.27
2019-02-07T01:20:22.784Z,36.57
2019-02-07T01:22:51.917Z,37.63
2019-02-07T01:25:21.718Z,36.38
2019-02-07T01:27:50.928Z,41.20
2019-02-07T01:30:21.282Z,39.17
2019-02-07T01:32:50.461Z,35.60
2019-02-07T01:35:19.546Z,41.97
2019-02-07T01:37:48.938Z,40.12
2019-02-07T01:40:18.581Z,38.02
2019-02-07T01:42:47.771Z,36.67
2019-02-07T01:45:19.578Z,40.20
2019-02-07T01:47:48.911Z,39.98
2019-02-07T01:50:20.131Z,42.73
2019-02-07T01:52:50.012Z,39.33
2019-02-07T01:55:19.227Z,43.87
2019-02-07T01:57:48.335Z,39.30
2019-02-07T02:00:18.346Z,44.63
2019-02-07T02:02:47.656Z,39.73
2019-02-07T02:05:17.505Z,43.30
2019-02-07T02:07:47.111Z,41.53
2019-02-07T02:10:21.242Z,44.10
2019-02-07T02:12:50.330Z,41.57
2019-02-07T02:15:24.455Z,42.55
2019-02-07T02:18:10.890Z,41.37
2019-02-07T02:20:39.980Z,43.83
2019-02-07T02:23:09.142Z,45.50
2019-02-07T02:25:38.214Z,40.33
2019-02-07T02:28:07.304Z,46.03
2019-02-07T02:30:36.602Z,40.17
2019-02-07T02:33:06.179Z,45.83
2019-02-07T02:35:35.365Z,43.27
2019-02-07T02:38:04.541Z,47.67
2019-02-07T02:40:33.629Z,45.77
2019-02-07T02:43:02.701Z,48.00
2019-02-07T02:45:37.436Z,51.27
2019-02-07T02:48:02.582Z,44.67
2019-02-07T02:50:31.668Z,45.17
2019-02-07T02:53:00.786Z,48.47
2019-02-07T02:55:33.012Z,47.73
2019-02-07T02:58:02.109Z,46.77
2019-02-07T03:00:49.053Z,47.30
2019-02-07T03:03:23.899Z,46.23
2019-02-07T03:06:12.098Z,48.10
2019-02-07T03:09:09.470Z,49.30
2019-02-07T03:11:46.946Z,46.90
2019-02-07T03:14:26.157Z,49.67
2019-02-07T03:17:14.307Z,43.20
2019-02-07T03:20:11.476Z,47.03
2019-02-07T03:23:02.395Z,48.40
2019-02-07T03:25:49.049Z,43.63
2019-02-07T03:28:43.214Z,44.97
2019-02-07T03:31:31.345Z,46.53
2019-02-07T03:34:15.721Z,47.63
2019-02-07T03:37:09.737Z,52.47
2019-02-07T03:39:57.286Z,44.73
2019-02-07T03:42:54.767Z,50.20
2019-02-07T03:46:02.039Z,46.27
2019-02-07T03:48:51.429Z,49.37
2019-02-07T03:51:45.632Z,43.57
2019-02-07T03:54:42.163Z,47.73
2019-02-07T03:57:36.426Z,49.33
2019-02-07T04:00:24.715Z,47.47
2019-02-07T04:03:03.382Z,46.90
2019-02-07T04:05:50.322Z,47.83
2019-02-07T04:08:38.823Z,48.43
2019-02-07T04:11:33.281Z,44.97
2019-02-07T04:14:12.838Z,44.23
2019-02-07T04:17:00.963Z,46.83
2019-02-07T04:19:39.777Z,45.17
2019-02-07T04:22:23.333Z,48.47
2019-02-07T04:25:06.911Z,46.47
2019-02-07T04:27:53.828Z,47.27
2019-02-07T04:31:04.099Z,51.30
2019-02-07T04:34:05.170Z,46.73
2019-02-07T04:36:44.085Z,48.50
2019-02-07T04:39:32.287Z,45.80
2019-02-07T04:42:19.311Z,50.57
2019-02-07T04:45:19.656Z,48.10
2019-02-07T04:48:16.867Z,47.47
2019-02-07T04:51:07.783Z,47.27
2019-02-07T04:54:02.200Z,46.23
2019-02-07T04:56:53.589Z,48.47
2019-02-07T04:59:41.789Z,45.07
2019-02-07T05:02:28.736Z,47.40
2019-02-07T05:05:12.056Z,48.13
2019-02-07T05:08:06.005Z,45.27
2019-02-07T05:10:53.013Z,44.20
2019-02-07T05:13:40.200Z,46.53
2019-02-07T05:16:38.910Z,47.40
2019-02-07T05:19:16.043Z,44.70
2019-02-07T05:22:10.477Z,44.33
2019-02-07T05:25:13.992Z,45.40
2019-02-07T05:27:52.778Z,46.70
2019-02-07T05:30:33.951Z,45.03
2019-02-07T05:33:34.075Z,46.63
2019-02-07T05:36:28.407Z,44.17
2019-02-07T05:39:28.412Z,48.27
2019-02-07T05:42:15.213Z,47.43
2019-02-07T05:45:02.279Z,50.13
2019-02-07T05:47:56.711Z,53.47
2019-02-07T05:50:53.945Z,49.10
2019-02-07T05:53:30.769Z,49.93
2019-02-07T05:56:21.676Z,53.33
2019-02-07T05:59:11.024Z,50.53
2019-02-07T06:02:01.933Z,50.83
2019-02-07T06:04:50.707Z,51.03
2019-02-07T06:07:37.553Z,48.90
2019-02-07T06:10:25.923Z,47.17
2019-02-07T06:13:12.658Z,52.53
2019-02-07T06:15:58.624Z,54.03
2019-02-07T06:18:51.948Z,50.27
2019-02-07T06:21:40.095Z,56.13
2019-02-07T06:24:24.315Z,54.97
2019-02-07T06:27:12.481Z,52.17
2019-02-07T06:30:03.821Z,53.27
2019-02-07T06:32:50.984Z,52.87
2019-02-07T06:35:32.892Z,51.63
2019-02-07T06:38:36.287Z,54.20
2019-02-07T06:41:24.826Z,52.27
2019-02-07T06:44:18.753Z,52.70
2019-02-07T06:47:19.667Z,53.70
2019-02-07T06:50:13.681Z,51.80
2019-02-07T06:52:57.530Z,51.67
2019-02-07T06:55:48.513Z,52.50
2019-02-07T06:59:14.710Z,51.80
2019-02-07T07:01:59.359Z,56.50
2019-02-07T07:04:46.372Z,54.27
2019-02-07T07:07:37.320Z,50.67
2019-02-07T07:10:30.609Z,54.07
2019-02-07T07:13:17.434Z,50.57
2019-02-07T07:16:05.555Z,49.80
2019-02-07T07:18:53.699Z,54.67
2019-02-07T07:21:53.856Z,56.07
2019-02-07T07:24:45.002Z,51.57
2019-02-07T07:27:36.195Z,52.07
2019-02-07T07:30:27.358Z,54.37
2019-02-07T07:33:14.198Z,60.03
2019-02-07T07:36:02.364Z,52.30
2019-02-07T07:38:49.040Z,54.33
2019-02-07T07:41:27.392Z,54.50
2019-02-07T07:44:15.524Z,51.10
2019-02-07T07:47:03.660Z,51.33
2019-02-07T07:49:54.365Z,56.43
2019-02-07T07:52:44.838Z,52.00
2019-02-07T07:55:26.036Z,52.43
2019-02-07T07:58:08.118Z,53.27
2019-02-07T08:00:55.280Z,57.67
2019-02-07T08:03:52.702Z,56.17
2019-02-07T08:06:40.826Z,54.87
2019-02-07T08:09:40.107Z,53.53
2019-02-07T08:12:34.029Z,54.03
2019-02-07T08:15:21.558Z,58.30
2019-02-07T08:18:17.216Z,55.07
2019-02-07T08:21:02.672Z,60.33
2019-02-07T08:23:49.498Z,55.27
2019-02-07T08:26:27.687Z,54.87
2019-02-07T08:29:08.493Z,52.20
2019-02-07T08:31:55.560Z,58.10
2019-02-07T08:34:40.202Z,54.87
2019-02-07T08:37:40.462Z,54.57
2019-02-07T08:40:33.089Z,54.67
2019-02-07T08:43:21.728Z,57.93
2019-02-07T08:46:08.804Z,51.40
2019-02-07T08:48:55.445Z,49.97
2019-02-07T08:51:46.358Z,49.03
2019-02-07T08:54:34.503Z,52.40
2019-02-07T08:57:25.487Z,49.73
2019-02-07T09:00:12.222Z,48.87
2019-02-07T09:03:03.419Z,49.77
2019-02-07T09:05:50.966Z,49.60
2019-02-07T09:08:42.155Z,50.27
2019-02-07T09:11:41.010Z,46.07
2019-02-07T09:14:18.160Z,43.30
2019-02-07T09:17:24.484Z,48.87
2019-02-07T09:20:04.059Z,47.53
2019-02-07T09:22:50.267Z,45.43
2019-02-07T09:25:37.364Z,44.67
2019-02-07T09:28:24.471Z,47.77
2019-02-07T09:31:11.573Z,47.77
2019-02-07T09:34:02.731Z,42.40
2019-02-07T09:36:49.773Z,43.87
2019-02-07T09:39:50.113Z,44.97
2019-02-07T09:42:29.887Z,42.23
2019-02-07T09:45:17.917Z,44.43
2019-02-07T09:48:06.475Z,42.80
2019-02-07T09:50:54.667Z,46.30
2019-02-07T09:53:45.811Z,42.50
2019-02-07T09:56:33.969Z,43.67
2019-02-07T09:59:16.909Z,38.87
2019-02-07T10:01:53.616Z,37.87
2019-02-07T10:04:54.060Z,36.83
2019-02-07T10:07:41.071Z,38.27
2019-02-07T10:10:32.702Z,32.63
2019-02-07T10:13:21.709Z,32.87
2019-02-07T10:16:09.295Z,34.50
2019-02-07T10:18:47.725Z,32.63
2019-02-07T10:21:39.052Z,32.70
2019-02-07T10:24:19.715Z,30.77
2019-02-07T10:27:06.439Z,31.50
2019-02-07T10:29:53.503Z,29.53
2019-02-07T10:32:47.661Z,26.50
2019-02-07T10:35:41.722Z,25.43
2019-02-07T10:38:24.503Z,22.90
2019-02-07T10:41:14.252Z,25.00
2019-02-07T10:43:59.841Z,24.57
2019-02-07T10:46:47.068Z,23.97
2019-02-07T10:49:33.307Z,24.83
2019-02-07T10:52:20.112Z,23.00
2019-02-07T10:55:14.395Z,23.77
2019-02-07T10:58:20.693Z,23.20
2019-02-07T11:01:08.845Z,24.97
2019-02-07T11:03:56.121Z,26.10
2019-02-07T11:06:47.001Z,26.17
2019-02-07T11:09:33.535Z,27.23
2019-02-07T11:12:50.021Z,28.33
2019-02-07T11:15:38.247Z,25.63
2019-02-07T11:18:32.462Z,30.60
2019-02-07T11:21:24.949Z,30.77
2019-02-07T11:24:07.660Z,30.00
2019-02-07T11:26:54.789Z,28.40
2019-02-07T11:29:49.201Z,31.50
2019-02-07T11:32:49.629Z,28.80
2019-02-07T11:35:36.437Z,29.97
2019-02-07T11:38:23.925Z,32.27
2019-02-07T11:41:12.415Z,31.67
2019-02-07T11:43:59.831Z,31.33
2019-02-07T11:46:44.993Z,31.33
2019-02-07T11:49:21.477Z,31.67
2019-02-07T11:52:08.680Z,33.13
2019-02-07T11:54:59.008Z,32.77
2019-02-07T11:57:35.858Z,30.93
2019-02-07T12:00:37.439Z,32.97
2019-02-07T12:03:19.879Z,34.17
2019-02-07T12:06:17.351Z,34.53
2019-02-07T12:09:13.343Z,35.17
2019-02-07T12:12:13.835Z,36.73
2019-02-07T12:15:05.614Z,35.23
2019-02-07T12:17:49.741Z,36.60
2019-02-07T12:20:26.928Z,34.20
2019-02-07T12:23:15.079Z,40.40
2019-02-07T12:26:03.313Z,35.17
2019-02-07T12:29:00.890Z,32.37
2019-02-07T12:31:52.796Z,34.63
2019-02-07T12:34:40.308Z,31.93
2019-02-07T12:37:31.603Z,34.43
2019-02-07T12:40:39.905Z,34.80
2019-02-07T12:43:37.233Z,29.10
2019-02-07T12:46:40.355Z,35.07
2019-02-07T12:49:34.370Z,32.60
2019-02-07T12:52:25.743Z,37.67
2019-02-07T12:55:16.686Z,33.63
2019-02-07T12:58:19.961Z,32.93
2019-02-07T13:01:08.197Z,32.20
2019-02-07T13:03:57.874Z,32.30
2019-02-07T13:06:49.059Z,30.60
2019-02-07T13:09:35.821Z,36.83
2019-02-07T13:12:26.131Z,32.37
2019-02-07T13:15:14.971Z,31.77
2019-02-07T13:18:15.607Z,31.57
2019-02-07T13:21:13.033Z,32.10
2019-02-07T13:23:59.558Z,31.97
2019-02-07T13:26:42.190Z,31.30
2019-02-07T13:29:36.404Z,31.67
2019-02-07T13:32:23.926Z,35.93
2019-02-07T13:35:11.000Z,37.33
2019-02-07T13:38:08.392Z,34.20
2019-02-07T13:40:55.278Z,32.03
2019-02-07T13:43:33.823Z,35.17
2019-02-07T13:46:27.840Z,30.23
2019-02-07T13:49:22.282Z,35.10
2019-02-07T13:52:16.675Z,30.07
2019-02-07T13:55:08.648Z,29.20
2019-02-07T13:57:55.728Z,29.67
2019-02-07T14:00:35.888Z,30.73
2019-02-07T14:03:24.234Z,29.17
2019-02-07T14:06:18.457Z,31.93
2019-02-07T14:09:09.570Z,27.27
2019-02-07T14:12:00.036Z,26.27
2019-02-07T14:14:42.262Z,24.50
2019-02-07T14:17:30.392Z,26.23
2019-02-07T14:20:17.438Z,25.47
2019-02-07T14:23:00.702Z,25.53
2019-02-07T14:25:48.208Z,24.40
2019-02-07T14:28:35.447Z,25.60
2019-02-07T14:31:32.850Z,27.57
2019-02-07T14:34:30.324Z,24.50
2019-02-07T14:37:17.597Z,24.37
2019-02-07T14:39:55.178Z,24.80
2019-02-07T14:42:42.412Z,24.87
2019-02-07T14:45:30.488Z,23.90
2019-02-07T14:47:59.605Z,23.50
2019-02-07T14:50:28.711Z,23.57
2019-02-07T14:52:57.880Z,24.40
2019-02-07T14:55:27.018Z,22.10
2019-02-07T14:57:56.162Z,22.90
2019-02-07T15:00:25.792Z,24.23
2019-02-07T15:02:54.898Z,24.67
2019-02-07T15:05:23.993Z,26.10
2019-02-07T15:07:53.093Z,23.30
2019-02-07T15:10:22.629Z,27.47
2019-02-07T15:13:10.818Z,24.40
2019-02-07T15:15:39.932Z,20.37
2019-02-07T15:18:09.118Z,24.10
2019-02-07T15:20:38.596Z,24.37
2019-02-07T15:23:07.724Z,22.50
2019-02-07T15:25:36.804Z,24.63
2019-02-07T15:28:05.989Z,24.17
2019-02-07T15:30:35.086Z,24.10
2019-02-07T15:33:04.433Z,23.33
2019-02-07T15:35:36.054Z,21.07
2019-02-07T15:38:05.418Z,24.63
2019-02-07T15:40:34.522Z,24.30
2019-02-07T15:43:03.602Z,22.50
2019-02-07T15:45:32.690Z,20.50
2019-02-07T15:48:01.813Z,19.97
2019-02-07T15:50:37.781Z,20.47
2019-02-07T15:53:02.985Z,22.80
2019-02-07T15:55:32.148Z,19.70
2019-02-07T15:58:01.415Z,20.93
2019-02-07T16:00:48.773Z,23.77
2019-02-07T16:03:27.002Z,22.20
2019-02-07T16:05:56.158Z,25.13
2019-02-07T16:08:25.334Z,19.57
2019-02-07T16:10:54.448Z,21.03
2019-02-07T16:13:23.548Z,25.77
2019-02-07T16:15:52.914Z,20.87
2019-02-07T16:18:21.990Z,16.93
2019-02-07T16:20:51.102Z,21.57
2019-02-07T16:23:20.206Z,20.77
2019-02-07T16:25:49.300Z,22.27
2019-02-07T16:28:20.302Z,22.53
2019-02-07T16:30:49.291Z,21.40
2019-02-07T16:33:18.388Z,21.07
2019-02-07T16:35:47.449Z,20.23
2019-02-07T16:38:16.562Z,20.77
2019-02-07T16:40:45.713Z,19.73
2019-02-07T16:43:14.803Z,24.07
2019-02-07T16:45:44.279Z,23.27
2019-02-07T16:48:13.358Z,19.50
2019-02-07T16:50:42.466Z,23.93
2019-02-07T16:53:11.579Z,20.83
2019-02-07T16:55:40.771Z,20.50
2019-02-07T16:58:09.962Z,15.93
2019-02-07T17:00:39.424Z,16.10
2019-02-07T17:03:08.613Z,19.20
2019-02-07T17:05:38.073Z,16.53
2019-02-07T17:08:07.347Z,18.93
2019-02-07T17:10:36.537Z,27.23
2019-02-07T17:13:07.775Z,30.13
2019-02-07T17:15:37.289Z,36.17
2019-02-07T17:18:06.877Z,31.57
2019-02-07T17:20:36.170Z,18.10
2019-02-07T17:23:05.406Z,18.07
2019-02-07T17:25:34.586Z,23.30
2019-02-07T17:28:03.670Z,22.33
2019-02-07T17:30:33.361Z,19.60
2019-02-07T17:33:02.583Z,20.03
2019-02-07T17:35:31.671Z,19.07
2019-02-07T17:38:00.842Z,20.00
2019-02-07T17:40:30.474Z,23.07
2019-02-07T17:42:59.675Z,25.17
2019-02-07T17:45:29.483Z,27.40
2019-02-07T17:47:58.826Z,25.93
2019-02-07T17:50:30.828Z,27.93
2019-02-07T17:53:00.470Z,35.60
2019-02-07T17:55:48.725Z,30.27
2019-02-07T17:58:17.823Z,33.73
2019-02-07T18:00:59.579Z,33.20
2019-02-07T18:03:28.715Z,32.23
2019-02-07T18:05:57.804Z,34.27
2019-02-07T18:08:27.113Z,33.27
2019-02-07T18:10:56.223Z,33.77
2019-02-07T18:13:25.484Z,33.27
2019-02-07T18:15:57.296Z,31.80
2019-02-07T18:18:25.802Z,29.80
2019-02-07T18:20:54.913Z,47.90
2019-02-07T18:23:24.047Z,46.47
2019-02-07T18:25:53.305Z,41.40
2019-02-07T18:28:22.521Z,36.83
2019-02-07T18:30:51.635Z,34.70
2019-02-07T18:33:20.986Z,32.50
2019-02-07T18:35:50.267Z,32.47
2019-02-07T18:38:19.387Z,29.30
2019-02-07T18:40:48.591Z,28.80
2019-02-07T18:43:17.703Z,25.57
2019-02-07T18:45:46.933Z,25.27
2019-02-07T18:48:16.083Z,25.40
2019-02-07T18:50:45.273Z,28.10
2019-02-07T18:53:14.393Z,23.90
2019-02-07T18:55:43.911Z,29.23
2019-02-07T18:58:13.099Z,32.93
2019-02-07T19:00:42.179Z,24.87
2019-02-07T19:03:11.291Z,22.37
2019-02-07T19:05:40.400Z,25.00
2019-02-07T19:08:09.587Z,20.83
2019-02-07T19:10:39.388Z,23.30
2019-02-07T19:13:08.526Z,30.77
2019-02-07T19:15:40.408Z,21.40
2019-02-07T19:18:09.540Z,23.10
2019-02-07T19:20:38.700Z,21.67
2019-02-07T19:23:08.034Z,26.17
2019-02-07T19:25:37.929Z,26.23
2019-02-07T19:28:07.668Z,29.60
2019-02-07T19:30:36.891Z,27.00
2019-02-07T19:33:06.469Z,21.97
2019-02-07T19:35:35.732Z,24.93
2019-02-07T19:38:07.451Z,20.60
2019-02-07T19:40:37.026Z,22.03
2019-02-07T19:43:06.215Z,22.93
2019-02-07T19:45:35.394Z,20.87
2019-02-07T19:48:04.676Z,20.37
2019-02-07T19:50:33.892Z,20.47
2019-02-07T19:53:02.978Z,21.30
2019-02-07T19:55:32.246Z,21.83
2019-02-07T19:58:01.446Z,23.60
2019-02-07T20:00:31.557Z,25.10
2019-02-07T20:03:00.968Z,19.67
2019-02-07T20:05:30.177Z,20.83
2019-02-07T20:07:59.296Z,22.27
2019-02-07T20:10:29.018Z,19.03
2019-02-07T20:12:58.152Z,19.07
2019-02-07T20:15:29.493Z,22.03
2019-02-07T20:20:29.583Z,25.17
2019-02-07T20:22:58.736Z,28.13
2019-02-07T20:25:28.135Z,27.53
2019-02-07T20:27:57.623Z,23.80
2019-02-07T20:30:29.324Z,25.40
2019-02-07T20:32:58.600Z,31.73
2019-02-07T20:35:28.125Z,30.20
2019-02-07T20:37:57.619Z,31.20
2019-02-07T20:40:27.339Z,27.93
2019-02-07T20:42:56.819Z,25.03
2019-02-07T20:45:26.394Z,22.47
2019-02-07T20:47:55.681Z,23.10
2019-02-07T20:50:25.807Z,20.00
2019-02-07T20:52:55.009Z,22.20
2019-02-07T20:55:24.676Z,27.43
2019-02-07T20:57:54.000Z,29.07
2019-02-07T21:00:28.896Z,19.97
2019-02-07T21:02:58.096Z,20.47
2019-02-07T21:05:28.183Z,18.70
2019-02-07T21:07:57.344Z,19.73
2019-02-07T21:10:27.286Z,21.43
2019-02-07T21:12:56.409Z,18.83
2019-02-07T21:15:25.979Z,21.90
2019-02-07T21:17:55.084Z,21.30
2019-02-07T21:20:25.988Z,23.30
2019-02-07T21:22:56.273Z,20.53
2019-02-07T21:25:27.915Z,21.80
2019-02-07T21:27:57.013Z,20.50
2019-02-07T21:30:28.388Z,20.70
2019-02-07T21:32:57.711Z,19.83
2019-02-07T21:35:27.146Z,24.83
2019-02-07T21:37:56.761Z,23.80
2019-02-07T21:40:27.669Z,18.47
2019-02-07T21:42:57.780Z,22.63
2019-02-07T21:45:27.154Z,20.63
2019-02-07T21:47:56.952Z,24.77
2019-02-07T21:50:27.251Z,21.67
2019-02-07T21:52:56.353Z,21.70
2019-02-07T21:55:27.453Z,23.23
2019-02-07T21:57:56.592Z,27.50
2019-02-07T22:00:31.151Z,22.87
2019-02-07T22:03:00.362Z,28.87
2019-02-07T22:05:29.950Z,31.67
2019-02-07T22:07:59.033Z,24.93
2019-02-07T22:10:28.228Z,29.40
2019-02-07T22:12:57.970Z,30.87
2019-02-07T22:15:27.765Z,27.30
2019-02-07T22:17:56.883Z,23.83
2019-02-07T22:20:26.516Z,26.20
2019-02-07T22:22:55.714Z,29.07
2019-02-07T22:25:25.018Z,24.37
2019-02-07T22:27:54.224Z,24.73
2019-02-07T22:30:25.860Z,32.53
2019-02-07T22:32:55.230Z,23.87
2019-02-07T22:35:24.340Z,23.13
2019-02-07T22:37:53.542Z,24.67
2019-02-07T22:40:23.104Z,22.60
2019-02-07T22:42:52.814Z,24.67
2019-02-07T22:45:22.611Z,24.20
2019-02-07T22:47:51.748Z,24.20
2019-02-07T22:50:25.524Z,25.80
2019-02-07T22:52:56.972Z,24.67
2019-02-07T22:55:25.668Z,28.30
2019-02-07T22:57:54.741Z,23.40
2019-02-07T23:01:11.031Z,24.67
2019-02-07T23:03:45.388Z,25.13
2019-02-07T23:06:14.546Z,21.17
2019-02-07T23:08:44.172Z,19.00
2019-02-07T23:11:13.270Z,20.80
2019-02-07T23:13:42.424Z,25.77
2019-02-07T23:16:11.790Z,23.40
2019-02-07T23:18:41.393Z,30.23
2019-02-07T23:21:10.491Z,30.20
2019-02-07T23:23:39.580Z,27.97
2019-02-07T23:26:08.728Z,32.60
2019-02-07T23:28:37.807Z,32.70
2019-02-07T23:31:08.666Z,35.20
2019-02-07T23:33:38.356Z,35.37
2019-02-07T23:36:09.195Z,30.07
2019-02-07T23:38:38.314Z,29.07
2019-02-07T23:41:08.776Z,35.17
2019-02-07T23:43:45.708Z,29.40
2019-02-07T23:46:11.133Z,24.53
2019-02-07T23:48:40.392Z,26.27
2019-02-07T23:51:09.569Z,27.50
2019-02-07T23:53:38.680Z,27.17
2019-02-07T23:56:08.151Z,27.17
2019-02-07T23:58:37.253Z,31.00
